createdAt,value
2023-01-09T00:02:18.829Z,23.70
2023-01-09T00:04:49.698Z,23.80
2023-01-09T00:07:20.780Z,23.80
2023-01-09T00:09:51.474Z,23.80
2023-01-09T00:12:22.165Z,23.80
2023-01-09T00:14:52.872Z,23.80
2023-01-09T00:17:23.886Z,23.80
2023-01-09T00:19:56.649Z,23.70
2023-01-09T00:22:28.410Z,23.70
2023-01-09T00:24:59.650Z,23.70
2023-01-09T00:27:35.678Z,23.70
2023-01-09T00:30:06.980Z,23.70
2023-01-09T00:32:37.716Z,23.70
2023-01-09T00:35:09.615Z,23.80
2023-01-09T00:37:40.632Z,23.80
2023-01-09T00:40:12.491Z,23.80
2023-01-09T00:42:44.069Z,23.80
2023-01-09T00:45:17.911Z,23.80
2023-01-09T00:47:51.277Z,23.90
2023-01-09T00:50:29.194Z,23.80
2023-01-09T00:53:02.621Z,23.80
2023-01-09T00:55:34.296Z,23.90
2023-01-09T00:58:06.363Z,23.90
2023-01-09T01:00:38.051Z,24.00
2023-01-09T01:03:09.067Z,23.90
2023-01-09T01:05:57.396Z,24.00
2023-01-09T01:08:28.153Z,24.00
2023-01-09T01:10:59.284Z,24.10
2023-01-09T01:13:30.116Z,24.20
2023-01-09T01:16:01.076Z,24.20
2023-01-09T01:18:31.885Z,24.30
2023-01-09T01:21:05.590Z,24.30
2023-01-09T01:23:39.754Z,24.30
2023-01-09T01:26:17.128Z,24.30
2023-01-09T01:28:51.153Z,24.40
2023-01-09T01:31:22.796Z,24.40
2023-01-09T01:33:54.109Z,24.40
2023-01-09T01:36:25.464Z,24.40
2023-01-09T01:38:57.731Z,24.40
2023-01-09T01:41:31.858Z,24.50
2023-01-09T01:44:05.425Z,24.50
2023-01-09T01:46:36.799Z,24.60
2023-01-09T01:49:12.868Z,24.60
2023-01-09T01:51:46.085Z,24.60
2023-01-09T01:54:19.427Z,24.60
2023-01-09T01:56:52.533Z,24.70
2023-01-09T01:59:26.131Z,24.70
2023-01-09T02:01:59.773Z,24.80
2023-01-09T02:04:32.599Z,24.80
2023-01-09T02:07:06.242Z,24.80
2023-01-09T02:09:37.963Z,24.80
2023-01-09T02:12:26.242Z,24.80
2023-01-09T02:15:02.035Z,24.90
2023-01-09T02:17:42.953Z,24.90
2023-01-09T02:20:27.820Z,24.90
2023-01-09T02:23:20.202Z,25.00
2023-01-09T02:26:11.632Z,25.00
2023-01-09T02:28:57.192Z,25.10
2023-01-09T02:31:37.977Z,25.10
2023-01-09T02:34:11.628Z,25.20
2023-01-09T02:37:02.905Z,25.20
2023-01-09T02:39:45.123Z,25.20
2023-01-09T02:42:24.773Z,25.30
2023-01-09T02:44:56.043Z,25.30
2023-01-09T02:47:30.360Z,25.30
2023-01-09T02:50:03.880Z,25.30
2023-01-09T02:53:10.216Z,25.30
2023-01-09T02:55:59.821Z,25.40
2023-01-09T02:58:49.466Z,25.50
2023-01-09T03:01:39.438Z,25.60
2023-01-09T03:04:14.080Z,25.60
2023-01-09T03:06:47.353Z,25.60
2023-01-09T03:09:21.559Z,25.70
2023-01-09T03:11:57.589Z,25.80
2023-01-09T03:14:30.754Z,25.90
2023-01-09T03:17:05.374Z,26.00
2023-01-09T03:19:38.567Z,26.00
2023-01-09T03:22:11.176Z,26.10
2023-01-09T03:24:42.134Z,26.10
2023-01-09T03:27:13.068Z,26.10
2023-01-09T03:29:44.097Z,26.10
2023-01-09T03:32:17.967Z,26.20
2023-01-09T03:34:48.780Z,26.10
2023-01-09T03:37:20.449Z,26.20
2023-01-09T03:39:51.925Z,26.20
2023-01-09T03:42:23.114Z,26.30
2023-01-09T03:44:53.956Z,26.30
2023-01-09T03:47:25.146Z,26.30
2023-01-09T03:49:56.707Z,26.40
2023-01-09T03:52:28.211Z,26.40
2023-01-09T03:54:59.177Z,26.40
2023-01-09T03:57:30.493Z,26.40
2023-01-09T04:00:01.233Z,26.50
2023-01-09T04:02:32.075Z,26.40
2023-01-09T04:05:02.747Z,26.40
2023-01-09T04:07:33.515Z,26.50
2023-01-09T04:10:04.507Z,26.50
2023-01-09T04:12:35.984Z,26.50
2023-01-09T04:15:10.524Z,26.60
2023-01-09T04:17:42.680Z,26.60
2023-01-09T04:20:23.030Z,26.70
2023-01-09T04:23:02.081Z,26.70
2023-01-09T04:25:33.749Z,26.80
2023-01-09T04:28:05.463Z,26.90
2023-01-09T04:30:36.499Z,27.00
2023-01-09T04:33:07.357Z,27.00
2023-01-09T04:35:38.065Z,27.10
2023-01-09T04:38:08.999Z,27.30
2023-01-09T04:40:39.899Z,27.40
2023-01-09T04:43:10.560Z,27.50
2023-01-09T04:45:41.966Z,27.60
2023-01-09T04:48:17.107Z,27.70
2023-01-09T04:50:47.664Z,27.80
2023-01-09T04:53:18.455Z,27.90
2023-01-09T04:55:49.241Z,28.00
2023-01-09T04:58:19.926Z,28.10
2023-01-09T05:00:53.700Z,28.20
2023-01-09T05:03:24.427Z,28.30
2023-01-09T05:05:55.396Z,28.40
2023-01-09T05:08:26.751Z,28.60
2023-01-09T05:10:57.553Z,28.60
2023-01-09T05:13:28.505Z,28.60
2023-01-09T05:15:59.733Z,28.70
2023-01-09T05:18:30.675Z,28.70
2023-01-09T05:21:02.267Z,28.80
2023-01-09T05:23:33.059Z,28.60
2023-01-09T05:26:05.298Z,28.90
2023-01-09T05:28:36.292Z,28.90
2023-01-09T05:31:07.757Z,29.10
2023-01-09T05:33:39.846Z,29.20
2023-01-09T05:36:10.883Z,28.90
2023-01-09T05:38:42.105Z,29.20
2023-01-09T05:41:14.295Z,29.20
2023-01-09T05:43:45.311Z,29.20
2023-01-09T05:46:16.450Z,29.30
2023-01-09T05:48:47.442Z,29.30
2023-01-09T05:51:18.411Z,29.40
2023-01-09T05:53:49.171Z,29.50
2023-01-09T05:56:20.091Z,29.50
2023-01-09T05:58:54.089Z,29.60
2023-01-09T06:01:25.067Z,29.60
2023-01-09T06:03:55.806Z,29.60
2023-01-09T06:06:29.635Z,29.70
2023-01-09T06:09:04.803Z,29.70
2023-01-09T06:11:39.558Z,29.80
2023-01-09T06:14:11.010Z,29.80
2023-01-09T06:16:42.343Z,29.80
2023-01-09T06:19:13.052Z,29.70
2023-01-09T06:21:43.957Z,29.80
2023-01-09T06:24:14.976Z,29.80
2023-01-09T06:26:46.338Z,29.90
2023-01-09T06:29:17.463Z,29.90
2023-01-09T06:31:49.326Z,29.90
2023-01-09T06:34:20.337Z,30.00
2023-01-09T06:36:51.204Z,30.10
2023-01-09T06:39:22.680Z,30.10
2023-01-09T06:41:53.682Z,30.10
2023-01-09T06:44:24.516Z,30.10
2023-01-09T06:46:56.063Z,30.10
2023-01-09T06:49:28.927Z,30.10
2023-01-09T06:52:00.372Z,30.20
2023-01-09T06:54:35.536Z,30.20
2023-01-09T06:57:10.735Z,30.20
2023-01-09T06:59:51.333Z,30.20
2023-01-09T07:02:23.451Z,30.20
2023-01-09T07:04:54.417Z,30.20
2023-01-09T07:07:25.112Z,30.20
2023-01-09T07:09:55.938Z,30.30
2023-01-09T07:12:26.687Z,30.30
2023-01-09T07:14:57.775Z,30.30
2023-01-09T07:17:28.891Z,30.30
2023-01-09T07:20:12.030Z,30.30
2023-01-09T07:22:43.728Z,30.30
2023-01-09T07:25:15.636Z,30.20
2023-01-09T07:27:47.773Z,30.20
2023-01-09T07:30:19.743Z,30.20
2023-01-09T07:32:50.658Z,30.10
2023-01-09T07:35:26.957Z,30.10
2023-01-09T07:38:00.259Z,30.00
2023-01-09T07:40:33.626Z,30.00
2023-01-09T07:43:08.831Z,30.00
2023-01-09T07:45:42.868Z,29.90
2023-01-09T07:48:14.928Z,29.80
2023-01-09T07:50:46.848Z,29.80
2023-01-09T07:53:18.210Z,29.70
2023-01-09T07:55:53.246Z,29.70
2023-01-09T07:58:27.919Z,29.70
2023-01-09T08:00:59.232Z,29.60
2023-01-09T08:03:30.291Z,29.60
2023-01-09T08:09:15.058Z,29.50
2023-01-09T08:11:46.899Z,29.50
2023-01-09T08:14:21.455Z,29.40
2023-01-09T08:16:54.379Z,29.40
2023-01-09T08:19:26.919Z,29.40
2023-01-09T08:22:02.231Z,29.30
2023-01-09T08:24:34.000Z,29.30
2023-01-09T08:27:05.380Z,29.30
2023-01-09T08:29:37.852Z,29.30
2023-01-09T08:32:09.840Z,29.30
2023-01-09T08:34:41.871Z,29.30
2023-01-09T08:37:13.845Z,29.30
2023-01-09T08:39:46.975Z,29.20
2023-01-09T08:42:36.286Z,29.20
2023-01-09T08:45:26.315Z,29.20
2023-01-09T08:47:57.910Z,29.20
2023-01-09T08:50:30.030Z,29.20
2023-01-09T08:53:04.672Z,29.10
2023-01-09T08:55:39.226Z,29.10
2023-01-09T08:58:12.354Z,29.10
2023-01-09T09:00:44.186Z,29.10
2023-01-09T09:03:19.171Z,29.10
2023-01-09T09:05:50.573Z,29.10
2023-01-09T09:08:22.112Z,29.10
2023-01-09T09:10:52.813Z,29.10
2023-01-09T09:13:23.852Z,29.00
2023-01-09T09:15:54.973Z,29.00
2023-01-09T09:18:29.404Z,29.00
2023-01-09T09:21:00.653Z,29.00
2023-01-09T09:23:32.838Z,29.00
2023-01-09T09:26:03.823Z,29.00
2023-01-09T09:28:35.240Z,28.90
2023-01-09T09:31:09.087Z,28.90
2023-01-09T09:33:39.985Z,28.90
2023-01-09T09:36:11.319Z,28.80
2023-01-09T09:38:42.001Z,28.80
2023-01-09T09:41:19.717Z,28.70
2023-01-09T09:44:15.032Z,28.70
2023-01-09T09:46:55.352Z,28.70
2023-01-09T09:49:34.851Z,28.70
2023-01-09T09:52:35.842Z,28.70
2023-01-09T09:55:18.064Z,28.60
2023-01-09T09:57:50.379Z,28.60
2023-01-09T10:00:24.297Z,28.60
2023-01-09T10:02:57.888Z,28.50
2023-01-09T10:05:37.526Z,28.50
2023-01-09T10:08:16.096Z,28.40
2023-01-09T10:10:51.029Z,28.40
2023-01-09T10:13:41.601Z,28.30
2023-01-09T10:16:23.727Z,28.30
2023-01-09T10:19:30.253Z,28.20
2023-01-09T10:22:03.494Z,28.10
2023-01-09T10:25:11.516Z,28.10
2023-01-09T10:28:14.921Z,28.10
2023-01-09T10:30:48.243Z,28.00
2023-01-09T10:33:39.863Z,28.00
2023-01-09T10:36:28.347Z,28.00
2023-01-09T10:39:04.871Z,28.00
2023-01-09T10:41:38.066Z,28.00
2023-01-09T10:44:14.493Z,28.00
2023-01-09T10:46:47.862Z,28.00
2023-01-09T10:49:21.473Z,28.00
2023-01-09T10:52:09.536Z,28.00
2023-01-09T10:54:42.980Z,27.90
2023-01-09T10:57:20.307Z,28.00
2023-01-09T11:00:00.590Z,27.90
2023-01-09T11:02:37.868Z,27.90
2023-01-09T11:05:12.936Z,27.90
2023-01-09T11:07:47.496Z,27.90
2023-01-09T11:10:26.110Z,27.90
2023-01-09T11:12:58.570Z,27.90
2023-01-09T11:15:42.272Z,27.90
2023-01-09T11:18:27.062Z,27.90
2023-01-09T11:20:59.601Z,28.00
2023-01-09T11:23:35.126Z,28.00
2023-01-09T11:26:06.352Z,28.00
2023-01-09T11:28:45.810Z,28.00
2023-01-09T11:31:18.022Z,27.90
2023-01-09T11:33:51.571Z,27.90
2023-01-09T11:36:30.459Z,27.90
2023-01-09T11:39:06.733Z,27.90
2023-01-09T11:41:38.809Z,27.90
2023-01-09T11:44:10.872Z,27.90
2023-01-09T11:46:46.130Z,27.90
2023-01-09T11:49:25.563Z,27.90
2023-01-09T11:52:21.578Z,27.90
2023-01-09T11:54:57.932Z,27.80
2023-01-09T11:57:29.416Z,27.80
2023-01-09T12:00:02.896Z,27.80
2023-01-09T12:02:49.252Z,27.80
2023-01-09T12:05:38.210Z,27.70
2023-01-09T12:08:14.246Z,27.70
2023-01-09T12:10:53.247Z,27.70
2023-01-09T12:13:41.503Z,27.70
2023-01-09T12:16:18.577Z,27.70
2023-01-09T12:19:05.603Z,27.60
2023-01-09T12:21:45.773Z,27.60
2023-01-09T12:24:28.712Z,27.50
2023-01-09T12:27:18.453Z,27.40
2023-01-09T12:29:57.807Z,27.40
2023-01-09T12:32:32.476Z,27.30
2023-01-09T12:35:13.319Z,27.30
2023-01-09T12:38:01.552Z,27.20
2023-01-09T12:40:44.111Z,27.10
2023-01-09T12:43:26.872Z,27.10
2023-01-09T12:46:15.150Z,27.00
2023-01-09T12:48:54.772Z,27.00
2023-01-09T12:51:46.985Z,27.00
2023-01-09T12:54:23.597Z,27.00
2023-01-09T12:56:57.122Z,27.00
2023-01-09T12:59:37.081Z,27.10
2023-01-09T13:02:30.914Z,27.00
2023-01-09T13:05:04.363Z,27.00
2023-01-09T13:07:37.896Z,27.00
2023-01-09T13:10:23.362Z,27.00
2023-01-09T13:12:55.984Z,27.00
2023-01-09T13:15:47.342Z,27.00
2023-01-09T13:18:20.561Z,27.00
2023-01-09T13:20:57.763Z,26.90
2023-01-09T13:23:45.712Z,26.90
2023-01-09T13:26:24.936Z,26.90
2023-01-09T13:29:05.401Z,26.90
2023-01-09T13:31:55.196Z,26.90
2023-01-09T13:34:28.433Z,26.80
2023-01-09T13:37:00.428Z,26.80
2023-01-09T13:39:34.357Z,26.80
2023-01-09T13:42:25.239Z,26.80
2023-01-09T13:44:58.478Z,26.80
2023-01-09T13:47:31.134Z,26.80
2023-01-09T13:50:14.096Z,26.80
2023-01-09T13:52:46.663Z,26.80
2023-01-09T13:55:20.033Z,26.80
2023-01-09T13:58:13.058Z,26.80
2023-01-09T14:00:46.620Z,26.80
2023-01-09T14:03:28.110Z,26.80
2023-01-09T14:06:01.395Z,26.80
2023-01-09T14:08:34.395Z,26.80
2023-01-09T14:11:07.772Z,26.80
2023-01-09T14:13:44.170Z,26.70
2023-01-09T14:16:24.857Z,26.70
2023-01-09T14:19:19.487Z,26.70
2023-01-09T14:21:59.927Z,26.70
2023-01-09T14:24:44.855Z,26.70
2023-01-09T14:27:52.968Z,26.70
2023-01-09T14:30:38.725Z,26.70
2023-01-09T14:33:24.815Z,26.70
2023-01-09T14:36:27.794Z,26.70
2023-01-09T14:39:06.137Z,26.60
2023-01-09T14:42:01.705Z,26.70
2023-01-09T14:44:46.332Z,26.60
2023-01-09T14:47:40.636Z,26.60
2023-01-09T14:50:22.880Z,26.60
2023-01-09T14:52:56.260Z,26.60
2023-01-09T14:55:30.720Z,26.70
2023-01-09T14:58:18.091Z,26.60
2023-01-09T15:01:02.407Z,26.60
2023-01-09T15:03:36.290Z,26.70
2023-01-09T15:06:08.063Z,26.70
2023-01-09T15:08:39.913Z,26.70
2023-01-09T15:11:13.237Z,26.60
2023-01-09T15:13:49.590Z,26.70
2023-01-09T15:16:22.690Z,26.60
2023-01-09T15:18:59.604Z,26.70
2023-01-09T15:21:33.259Z,26.70
2023-01-09T15:24:24.979Z,26.60
2023-01-09T15:26:58.307Z,26.60
2023-01-09T15:29:29.900Z,26.60
2023-01-09T15:32:11.855Z,26.60
2023-01-09T15:34:45.774Z,26.60
2023-01-09T15:37:38.692Z,26.60
2023-01-09T15:40:10.810Z,26.60
2023-01-09T15:42:57.906Z,26.60
2023-01-09T15:45:33.944Z,26.60
2023-01-09T15:48:22.612Z,26.60
2023-01-09T15:51:02.142Z,26.60
2023-01-09T15:53:37.317Z,26.60
2023-01-09T15:56:10.638Z,26.60
2023-01-09T15:58:49.937Z,26.60
2023-01-09T16:01:37.634Z,26.60
2023-01-09T16:04:13.556Z,26.60
2023-01-09T16:07:59.317Z,26.50
2023-01-09T16:09:44.892Z,26.50
2023-01-09T16:15:27.992Z,26.50
2023-01-09T16:18:28.579Z,26.50
2023-01-09T16:24:08.973Z,26.40
2023-01-09T16:27:09.881Z,26.40
2023-01-09T16:29:43.940Z,26.40
2023-01-09T16:32:29.532Z,26.40
2023-01-09T16:35:09.881Z,26.40
2023-01-09T16:37:49.303Z,26.40
2023-01-09T16:40:35.365Z,26.40
2023-01-09T16:43:13.020Z,26.40
2023-01-09T16:45:58.878Z,26.40
2023-01-09T16:48:44.925Z,26.40
2023-01-09T16:51:15.219Z,26.30
2023-01-09T16:53:48.125Z,26.40
2023-01-09T16:56:47.661Z,26.40
2023-01-09T16:59:05.499Z,26.30
2023-01-09T17:01:44.995Z,26.30
2023-01-09T17:04:24.553Z,26.30
2023-01-09T17:06:57.100Z,26.30
2023-01-09T17:09:28.793Z,26.30
2023-01-09T17:12:06.395Z,26.30
2023-01-09T17:17:29.498Z,26.30
2023-01-09T17:20:00.594Z,26.30
2023-01-09T17:22:33.047Z,26.20
2023-01-09T17:25:26.937Z,26.20
2023-01-09T17:28:15.550Z,26.20
2023-01-09T17:30:46.265Z,26.20
2023-01-09T17:33:20.198Z,26.20
2023-01-09T17:35:51.152Z,26.10
2023-01-09T17:38:22.100Z,26.10
2023-01-09T17:40:53.932Z,26.10
2023-01-09T17:43:26.275Z,26.10
2023-01-09T17:45:58.493Z,26.10
2023-01-09T17:48:33.108Z,26.10
2023-01-09T17:51:04.708Z,26.00
2023-01-09T17:53:39.869Z,26.00
2023-01-09T17:56:27.382Z,26.00
2023-01-09T17:59:01.606Z,25.90
2023-01-09T18:01:32.710Z,25.90
2023-01-09T18:04:07.781Z,25.90
2023-01-09T18:06:38.908Z,25.90
2023-01-09T18:09:21.381Z,25.90
2023-01-09T18:11:55.354Z,25.90
2023-01-09T18:14:28.049Z,25.90
2023-01-09T18:17:00.145Z,25.90
2023-01-09T18:19:30.964Z,25.90
2023-01-09T18:22:07.661Z,25.80
2023-01-09T18:24:41.294Z,25.80
2023-01-09T18:27:16.858Z,25.80
2023-01-09T18:29:48.768Z,25.80
2023-01-09T18:32:21.120Z,25.70
2023-01-09T18:34:55.663Z,25.80
2023-01-09T18:37:26.435Z,25.70
2023-01-09T18:40:00.939Z,25.70
2023-01-09T18:42:39.279Z,25.70
2023-01-09T18:45:13.655Z,25.70
2023-01-09T18:50:36.482Z,25.60
2023-01-09T18:53:07.493Z,25.60
2023-01-09T18:55:41.352Z,25.60
2023-01-09T18:58:25.109Z,25.60
2023-01-09T19:00:49.481Z,25.60
2023-01-09T19:03:20.496Z,25.60
2023-01-09T19:05:51.718Z,25.60
2023-01-09T19:08:23.970Z,25.60
2023-01-09T19:11:01.058Z,25.50
2023-01-09T19:13:38.503Z,25.60
2023-01-09T19:16:23.889Z,25.50
2023-01-09T19:18:54.707Z,25.50
2023-01-09T19:21:27.876Z,25.50
2023-01-09T19:24:02.017Z,25.40
2023-01-09T19:26:33.024Z,25.50
2023-01-09T19:29:04.159Z,25.40
2023-01-09T19:31:35.405Z,25.40
2023-01-09T19:34:10.151Z,25.40
2023-01-09T19:36:42.668Z,25.40
2023-01-09T19:39:13.756Z,25.40
2023-01-09T19:41:46.144Z,25.50
2023-01-09T19:44:17.799Z,25.50
2023-01-09T19:46:51.983Z,25.50
2023-01-09T19:49:50.064Z,25.50
2023-01-09T19:52:21.773Z,25.40
2023-01-09T19:54:52.874Z,25.40
2023-01-09T19:57:25.701Z,25.40
2023-01-09T20:00:02.253Z,25.30
2023-01-09T20:02:35.377Z,25.30
2023-01-09T20:05:06.393Z,25.30
2023-01-09T20:07:39.181Z,25.30
2023-01-09T20:10:12.943Z,25.30
2023-01-09T20:12:45.427Z,25.30
2023-01-09T20:15:16.126Z,25.20
2023-01-09T20:17:46.928Z,25.20
2023-01-09T20:22:47.343Z,25.20
2023-01-09T20:25:18.477Z,25.20
2023-01-09T20:27:49.667Z,25.20
2023-01-09T20:30:22.586Z,25.20
2023-01-09T20:32:54.055Z,25.20
2023-01-09T20:35:24.758Z,25.20
2023-01-09T20:37:55.495Z,25.20
2023-01-09T20:40:26.260Z,25.20
2023-01-09T20:42:57.004Z,25.20
2023-01-09T20:45:29.163Z,25.20
2023-01-09T20:47:59.936Z,25.10
2023-01-09T20:50:32.743Z,25.10
2023-01-09T20:53:03.489Z,25.10
2023-01-09T20:55:34.204Z,25.00
2023-01-09T20:58:05.412Z,25.10
2023-01-09T21:00:36.133Z,25.00
2023-01-09T21:03:07.036Z,25.00
2023-01-09T21:05:39.032Z,25.00
2023-01-09T21:08:09.838Z,25.00
2023-01-09T21:10:40.851Z,25.00
2023-01-09T21:13:11.750Z,25.00
2023-01-09T21:15:42.581Z,25.00
2023-01-09T21:18:14.893Z,25.00
2023-01-09T21:20:45.904Z,25.00
2023-01-09T21:23:16.729Z,24.90
2023-01-09T21:25:48.905Z,24.90
2023-01-09T21:28:20.805Z,24.90
2023-01-09T21:30:51.710Z,24.90
2023-01-09T21:33:23.952Z,24.90
2023-01-09T21:35:58.669Z,24.90
2023-01-09T21:38:29.719Z,24.80
2023-01-09T21:41:01.960Z,24.90
2023-01-09T21:43:51.026Z,24.80
2023-01-09T21:46:39.656Z,24.80
2023-01-09T21:49:10.534Z,24.80
2023-01-09T21:51:42.366Z,24.80
2023-01-09T21:54:13.240Z,24.80
2023-01-09T21:56:44.071Z,24.70
2023-01-09T21:59:15.037Z,24.70
2023-01-09T22:01:46.008Z,24.60
2023-01-09T22:04:21.663Z,24.60
2023-01-09T22:06:52.565Z,24.60
2023-01-09T22:09:23.759Z,24.60
2023-01-09T22:11:54.580Z,24.60
2023-01-09T22:14:25.588Z,24.60
2023-01-09T22:16:56.756Z,24.60
2023-01-09T22:19:28.246Z,24.60
2023-01-09T22:21:59.218Z,24.60
2023-01-09T22:24:30.286Z,24.50
2023-01-09T22:27:01.022Z,24.50
2023-01-09T22:29:31.902Z,24.50
2023-01-09T22:32:02.685Z,24.50
2023-01-09T22:34:33.494Z,24.50
2023-01-09T22:37:04.705Z,24.50
2023-01-09T22:39:35.595Z,24.50
2023-01-09T22:42:08.027Z,24.50
2023-01-09T22:44:38.717Z,24.50
2023-01-09T22:47:10.681Z,24.50
2023-01-09T22:49:52.396Z,24.50
2023-01-09T22:52:14.799Z,24.50
2023-01-09T22:54:46.838Z,24.50
2023-01-09T22:57:20.958Z,24.50
2023-01-09T22:59:53.899Z,24.40
2023-01-09T23:02:24.564Z,24.40
2023-01-09T23:04:58.035Z,24.50
2023-01-09T23:07:34.861Z,24.40
2023-01-09T23:10:06.651Z,24.40
2023-01-09T23:12:39.846Z,24.40
2023-01-09T23:15:11.872Z,24.40
2023-01-09T23:17:42.596Z,24.40
2023-01-09T23:20:14.847Z,24.40
2023-01-09T23:22:45.647Z,24.40
2023-01-09T23:25:17.976Z,24.40
2023-01-09T23:27:48.658Z,24.40
2023-01-09T23:30:19.723Z,24.40
2023-01-09T23:32:50.503Z,24.40
2023-01-09T23:35:21.249Z,24.40
2023-01-09T23:37:52.055Z,24.40
2023-01-09T23:40:22.857Z,24.40
2023-01-09T23:43:12.086Z,24.40
2023-01-09T23:45:48.110Z,24.40
2023-01-09T23:48:20.069Z,24.40
2023-01-09T23:50:56.006Z,24.40
2023-01-09T23:53:27.411Z,24.40
2023-01-09T23:55:58.330Z,24.40
2023-01-09T23:58:29.870Z,24.40
